Time;durP1;ratioP1;P1;durP2;ratioP2;P2;SDS_P1;SDS_P2;PMS_P1;PMS_P2;Temp;Humidity;BMP_temperature;BMP_pressure;BME280_temperature;BME280_humidity;BME280_pressure;Samples;Min_cycle;Max_cycle;Signal;HPM_P1;HPM_P2
2022/11/20 00:01:41;;;;;;;25.42;13.32;;;;;;;;;;5003798;28;20149;-71
2022/11/20 00:04:08;;;;;;;23.95;13.35;;;;;;;;;;5004759;28;20105;-73
2022/11/20 00:06:34;;;;;;;20.75;13.05;;;;;;;;;;5016966;28;20124;-70
2022/11/20 00:09:01;;;;;;;19.40;11.00;;;;;;;;;;5023611;28;20046;-73
2022/11/20 00:11:29;;;;;;;22.30;12.45;;;;;;;;;;5021507;28;20069;-72
2022/11/20 00:13:57;;;;;;;18.98;12.10;;;;;;;;;;5009288;28;20043;-73
2022/11/20 00:16:24;;;;;;;20.25;13.07;;;;;;;;;;5003524;28;20519;-73
2022/11/20 00:18:50;;;;;;;22.15;12.50;;;;;;;;;;5016161;28;20053;-72
2022/11/20 00:21:18;;;;;;;23.38;13.38;;;;;;;;;;5023411;28;20061;-72
2022/11/20 00:23:47;;;;;;;20.70;12.57;;;;;;;;;;5010355;28;20576;-71
2022/11/20 00:26:15;;;;;;;17.52;11.68;;;;;;;;;;5003656;28;20054;-70
2022/11/20 00:28:42;;;;;;;20.55;12.70;;;;;;;;;;5003786;28;20101;-73
2022/11/20 00:31:12;;;;;;;23.38;12.57;;;;;;;;;;5008126;28;20089;-70
2022/11/20 00:33:39;;;;;;;22.90;13.52;;;;;;;;;;5008263;28;20133;-73
2022/11/20 00:36:06;;;;;;;27.33;13.85;;;;;;;;;;5006787;28;20050;-72
2022/11/20 00:38:33;;;;;;;21.40;12.27;;;;;;;;;;5004333;28;20050;-72
2022/11/20 00:41:00;;;;;;;18.55;12.73;;;;;;;;;;5020909;28;20622;-72
2022/11/20 00:43:27;;;;;;;20.30;12.68;;;;;;;;;;5009882;28;20069;-73
2022/11/20 00:46:00;;;;;;;18.73;11.57;;;;;;;;;;5002380;28;20057;-72
2022/11/20 00:48:27;;;;;;;19.92;11.73;;;;;;;;;;5012466;28;20046;-70
2022/11/20 00:50:54;;;;;;;22.73;13.25;;;;;;;;;;5006582;28;20489;-73
2022/11/20 00:53:20;;;;;;;18.67;12.45;;;;;;;;;;5015385;28;20534;-71
2022/11/20 00:55:53;;;;;;;21.92;12.43;;;;;;;;;;5022920;28;20054;-70
2022/11/20 00:58:19;;;;;;;21.98;12.35;;;;;;;;;;5023117;28;20534;-71
2022/11/20 01:00:45;;;;;;;24.00;13.35;;;;;;;;;;5022232;28;20053;-74
2022/11/20 01:03:12;;;;;;;22.17;12.52;;;;;;;;;;5012108;28;20546;-73
2022/11/20 01:05:38;;;;;;;16.13;11.35;;;;;;;;;;5017186;28;20057;-71
2022/11/20 01:08:05;;;;;;;22.17;12.60;;;;;;;;;;5006382;28;20082;-72
2022/11/20 01:10:31;;;;;;;17.38;11.43;;;;;;;;;;5002816;28;20962;-72
2022/11/20 01:15:49;;;;;;;23.65;11.65;;;;;;;;;;5003248;28;20077;-72
2022/11/20 01:18:15;;;;;;;20.15;12.43;;;;;;;;;;5022150;28;20073;-73
2022/11/20 01:20:42;;;;;;;23.52;12.88;;;;;;;;;;5021813;28;20054;-71
2022/11/20 01:23:08;;;;;;;18.65;11.48;;;;;;;;;;5018974;28;20142;-70
2022/11/20 01:25:35;;;;;;;20.05;12.38;;;;;;;;;;5009126;28;20050;-73
2022/11/20 01:28:01;;;;;;;19.20;11.88;;;;;;;;;;5025384;28;20644;-74
2022/11/20 01:30:28;;;;;;;23.45;11.50;;;;;;;;;;5017605;28;20060;-71
2022/11/20 01:32:55;;;;;;;19.90;11.57;;;;;;;;;;5009126;28;20058;-72
2022/11/20 01:35:21;;;;;;;24.58;13.43;;;;;;;;;;5010042;28;20066;-73
2022/11/20 01:37:47;;;;;;;24.35;13.55;;;;;;;;;;5010180;28;20054;-72
2022/11/20 01:40:13;;;;;;;20.60;13.23;;;;;;;;;;5040887;28;20088;-71
2022/11/20 01:45:47;;;;;;;16.40;10.68;;;;;;;;;;5008793;28;20571;-73
2022/11/20 01:48:14;;;;;;;25.80;13.73;;;;;;;;;;5018768;28;20574;-74
2022/11/20 01:50:41;;;;;;;21.30;12.93;;;;;;;;;;5021379;28;20059;-70
2022/11/20 01:53:09;;;;;;;21.63;11.43;;;;;;;;;;5009288;28;20054;-71
2022/11/20 01:55:39;;;;;;;19.05;11.85;;;;;;;;;;5008841;28;20523;-72
2022/11/20 01:58:05;;;;;;;20.92;12.80;;;;;;;;;;5024173;28;20057;-72
2022/11/20 02:00:32;;;;;;;20.27;12.43;;;;;;;;;;5027871;28;20318;-69
2022/11/20 02:03:01;;;;;;;20.38;11.20;;;;;;;;;;5017122;28;20061;-73
2022/11/20 02:05:27;;;;;;;27.70;16.30;;;;;;;;;;5008790;28;20678;-71
2022/11/20 02:07:55;;;;;;;25.52;15.85;;;;;;;;;;5017350;28;20073;-74
2022/11/20 02:10:22;;;;;;;26.00;15.32;;;;;;;;;;5027164;28;20409;-71
2022/11/20 02:15:33;;;;;;;22.25;12.27;;;;;;;;;;5014650;28;20058;-74
2022/11/20 02:17:59;;;;;;;22.05;12.07;;;;;;;;;;5016127;28;20061;-72
2022/11/20 02:20:26;;;;;;;22.60;12.68;;;;;;;;;;5027561;28;20058;-71
2022/11/20 02:22:57;;;;;;;18.45;10.93;;;;;;;;;;5028083;28;20053;-71
2022/11/20 02:25:24;;;;;;;19.02;10.77;;;;;;;;;;5009481;28;20058;-71
2022/11/20 02:27:51;;;;;;;18.92;12.13;;;;;;;;;;5007264;28;20062;-74
2022/11/20 02:30:17;;;;;;;19.13;11.20;;;;;;;;;;5009018;28;20057;-72
2022/11/20 02:32:43;;;;;;;17.85;11.32;;;;;;;;;;5023043;28;20052;-73
2022/11/20 02:35:31;;;;;;;19.92;11.27;;;;;;;;;;5025268;28;20133;-73
2022/11/20 02:37:59;;;;;;;20.67;9.93;;;;;;;;;;5026630;28;20057;-73
2022/11/20 02:40:25;;;;;;;19.00;12.02;;;;;;;;;;5021042;28;20043;-73
2022/11/20 02:42:55;;;;;;;20.42;11.27;;;;;;;;;;5004885;28;20050;-72
2022/11/20 02:45:22;;;;;;;17.73;10.85;;;;;;;;;;5014872;28;20046;-71
2022/11/20 02:47:49;;;;;;;16.60;11.02;;;;;;;;;;5023994;28;20081;-72
2022/11/20 02:50:15;;;;;;;20.10;11.52;;;;;;;;;;5022893;28;20046;-72
2022/11/20 02:52:42;;;;;;;21.55;11.88;;;;;;;;;;5009558;28;20054;-72
2022/11/20 02:55:09;;;;;;;17.98;11.30;;;;;;;;;;5024694;28;20061;-71
2022/11/20 02:57:35;;;;;;;19.02;11.82;;;;;;;;;;5023296;28;20057;-73
2022/11/20 03:00:03;;;;;;;20.55;11.55;;;;;;;;;;5014126;28;20062;-73
2022/11/20 03:02:29;;;;;;;17.40;11.43;;;;;;;;;;5005572;28;20046;-72
2022/11/20 03:04:56;;;;;;;21.23;11.80;;;;;;;;;;5005134;28;20054;-73
2022/11/20 03:07:22;;;;;;;19.05;11.57;;;;;;;;;;5043317;28;20512;-72
2022/11/20 03:09:48;;;;;;;21.98;11.50;;;;;;;;;;5043399;28;20945;-72
2022/11/20 03:12:15;;;;;;;20.73;11.98;;;;;;;;;;5027582;28;20069;-72
2022/11/20 03:14:41;;;;;;;17.30;10.77;;;;;;;;;;5012073;28;20050;-69
2022/11/20 03:17:07;;;;;;;19.15;11.52;;;;;;;;;;5007424;28;20081;-73
2022/11/20 03:19:34;;;;;;;17.70;11.43;;;;;;;;;;5013813;28;20556;-72
2022/11/20 03:22:00;;;;;;;18.63;11.45;;;;;;;;;;5017436;28;20922;-72
2022/11/20 03:24:27;;;;;;;19.65;11.35;;;;;;;;;;5021994;28;20061;-73
2022/11/20 03:26:53;;;;;;;19.15;10.68;;;;;;;;;;5024201;28;20046;-72
2022/11/20 03:29:19;;;;;;;17.65;10.60;;;;;;;;;;5010722;28;20462;-71
2022/11/20 03:31:46;;;;;;;15.73;10.68;;;;;;;;;;5003693;28;20145;-70
2022/11/20 03:34:13;;;;;;;15.38;10.80;;;;;;;;;;5004404;28;20053;-71
2022/11/20 03:36:40;;;;;;;19.30;11.25;;;;;;;;;;5004656;28;20086;-72
2022/11/20 03:39:07;;;;;;;20.90;11.32;;;;;;;;;;5004073;28;20153;-70
2022/11/20 03:41:37;;;;;;;18.85;11.13;;;;;;;;;;5012445;28;20046;-70
2022/11/20 03:44:04;;;;;;;17.75;11.80;;;;;;;;;;5033283;28;20049;-71
2022/11/20 03:46:31;;;;;;;19.52;11.20;;;;;;;;;;5042098;28;20077;-70
2022/11/20 03:48:57;;;;;;;19.23;11.35;;;;;;;;;;5003888;28;20055;-73
2022/11/20 03:51:25;;;;;;;19.15;10.95;;;;;;;;;;5004373;28;20054;-70
2022/11/20 03:53:52;;;;;;;18.45;9.85;;;;;;;;;;5015241;28;20054;-71
2022/11/20 03:56:19;;;;;;;19.05;11.10;;;;;;;;;;5019247;28;20179;-70
2022/11/20 03:58:45;;;;;;;19.52;11.75;;;;;;;;;;5004431;28;20046;-70
2022/11/20 04:01:16;;;;;;;20.17;11.63;;;;;;;;;;5017970;28;20113;-71
2022/11/20 04:03:43;;;;;;;20.77;11.02;;;;;;;;;;5023272;28;20057;-71
2022/11/20 04:06:14;;;;;;;18.70;10.10;;;;;;;;;;5014489;28;20149;-72
2022/11/20 04:08:41;;;;;;;17.95;11.13;;;;;;;;;;5004324;28;20043;-70
2022/11/20 04:11:18;;;;;;;16.58;10.63;;;;;;;;;;5009277;28;20551;-72
2022/11/20 04:13:48;;;;;;;17.15;10.48;;;;;;;;;;5023363;28;20054;-69
2022/11/20 04:16:15;;;;;;;21.83;12.23;;;;;;;;;;5009600;28;20105;-73
2022/11/20 04:18:43;;;;;;;21.87;11.87;;;;;;;;;;5022068;28;20061;-69
2022/11/20 04:21:09;;;;;;;19.75;10.73;;;;;;;;;;5009248;28;20066;-70
2022/11/20 04:23:36;;;;;;;21.48;11.30;;;;;;;;;;5008164;28;20054;-73
2022/11/20 04:26:03;;;;;;;19.15;10.63;;;;;;;;;;5003443;28;20058;-70
2022/11/20 04:28:30;;;;;;;20.52;11.18;;;;;;;;;;5003493;28;20570;-73
2022/11/20 04:31:07;;;;;;;19.92;11.35;;;;;;;;;;5002426;28;20050;-72
2022/11/20 04:33:33;;;;;;;15.93;9.82;;;;;;;;;;5016294;28;20448;-73
2022/11/20 04:36:01;;;;;;;23.08;11.32;;;;;;;;;;5011794;28;20176;-71
2022/11/20 04:38:28;;;;;;;17.37;11.10;;;;;;;;;;5022829;28;20340;-72
2022/11/20 04:40:58;;;;;;;17.80;11.38;;;;;;;;;;5022445;28;20046;-72
2022/11/20 04:43:25;;;;;;;20.23;10.82;;;;;;;;;;5023047;28;20141;-70
2022/11/20 04:45:55;;;;;;;17.63;11.02;;;;;;;;;;5022888;28;20058;-74
2022/11/20 04:48:21;;;;;;;16.30;9.90;;;;;;;;;;5022163;28;20050;-73
2022/11/20 04:50:47;;;;;;;17.55;10.52;;;;;;;;;;5013023;28;20062;-72
2022/11/20 04:53:14;;;;;;;16.08;9.90;;;;;;;;;;5003361;28;20065;-73
2022/11/20 04:55:40;;;;;;;18.30;10.55;;;;;;;;;;5002283;28;20050;-71
2022/11/20 04:58:08;;;;;;;20.13;10.60;;;;;;;;;;5018433;28;20504;-73
2022/11/20 05:00:34;;;;;;;17.42;11.07;;;;;;;;;;5022614;28;20057;-72
2022/11/20 05:03:01;;;;;;;17.70;10.32;;;;;;;;;;5022757;28;20061;-70
2022/11/20 05:05:27;;;;;;;21.30;10.00;;;;;;;;;;5022414;28;20060;-71
2022/11/20 05:07:55;;;;;;;17.00;10.82;;;;;;;;;;5022708;28;20133;-72
2022/11/20 05:10:22;;;;;;;18.48;10.82;;;;;;;;;;5019437;28;20184;-71
2022/11/20 05:12:48;;;;;;;20.15;11.05;;;;;;;;;;5006433;28;20509;-71
2022/11/20 05:15:14;;;;;;;18.25;11.05;;;;;;;;;;5003038;28;20489;-73
2022/11/20 05:17:46;;;;;;;16.55;10.65;;;;;;;;;;5017201;28;20050;-72
2022/11/20 05:20:12;;;;;;;17.80;10.65;;;;;;;;;;5016004;28;20082;-70
2022/11/20 05:22:39;;;;;;;18.20;11.02;;;;;;;;;;5003160;28;20058;-73
2022/11/20 05:25:06;;;;;;;18.20;11.50;;;;;;;;;;5018010;28;20061;-72
2022/11/20 05:27:32;;;;;;;17.20;10.93;;;;;;;;;;5022418;28;20046;-72
2022/11/20 05:29:58;;;;;;;18.15;10.57;;;;;;;;;;5020159;28;20054;-72
2022/11/20 05:32:25;;;;;;;16.23;10.77;;;;;;;;;;5002486;28;20524;-70
2022/11/20 05:34:52;;;;;;;20.23;11.60;;;;;;;;;;5001796;28;20057;-72
2022/11/20 05:37:18;;;;;;;23.00;11.82;;;;;;;;;;5006720;28;20057;-71
2022/11/20 05:39:44;;;;;;;22.70;12.00;;;;;;;;;;5002949;28;20054;-72
2022/11/20 05:42:29;;;;;;;19.52;11.85;;;;;;;;;;5002609;28;20050;-70
2022/11/20 05:44:56;;;;;;;18.42;10.88;;;;;;;;;;5001831;28;20798;-71
2022/11/20 05:47:23;;;;;;;17.50;10.77;;;;;;;;;;5014250;28;20117;-72
2022/11/20 05:49:49;;;;;;;24.00;11.98;;;;;;;;;;5008421;28;20886;-72
2022/11/20 05:52:15;;;;;;;19.83;11.43;;;;;;;;;;5021314;28;20577;-72
2022/11/20 05:54:41;;;;;;;17.40;10.55;;;;;;;;;;5022209;28;20149;-72
2022/11/20 05:57:08;;;;;;;15.82;10.52;;;;;;;;;;5005254;28;20050;-73
2022/11/20 05:59:34;;;;;;;21.60;11.48;;;;;;;;;;5009779;28;20054;-70
2022/11/20 06:02:00;;;;;;;20.10;11.57;;;;;;;;;;5033747;28;20571;-72
2022/11/20 06:04:27;;;;;;;24.08;11.60;;;;;;;;;;5041028;28;20106;-71
2022/11/20 06:06:53;;;;;;;17.30;11.55;;;;;;;;;;5013480;28;20058;-72
2022/11/20 06:09:19;;;;;;;18.00;10.80;;;;;;;;;;5006945;28;20054;-72
2022/11/20 06:11:46;;;;;;;19.23;11.68;;;;;;;;;;5006511;28;20652;-72
2022/11/20 06:14:12;;;;;;;18.13;10.98;;;;;;;;;;5005256;28;20055;-72
2022/11/20 06:16:39;;;;;;;18.48;10.85;;;;;;;;;;5011725;28;20524;-72
2022/11/20 06:19:05;;;;;;;20.25;11.43;;;;;;;;;;5024540;28;20999;-72
2022/11/20 06:21:31;;;;;;;21.98;11.05;;;;;;;;;;5010256;28;20054;-71
2022/11/20 06:23:58;;;;;;;21.75;11.45;;;;;;;;;;5006523;28;20066;-72
2022/11/20 06:26:26;;;;;;;21.83;11.80;;;;;;;;;;5027465;28;20057;-72
2022/11/20 06:28:53;;;;;;;22.08;12.05;;;;;;;;;;5026763;28;20500;-72
2022/11/20 06:31:20;;;;;;;21.90;11.40;;;;;;;;;;5024688;28;20054;-70
2022/11/20 06:33:47;;;;;;;22.10;12.00;;;;;;;;;;5023019;28;20520;-72
2022/11/20 06:36:14;;;;;;;23.20;11.65;;;;;;;;;;5015890;28;20058;-70
2022/11/20 06:38:41;;;;;;;19.58;12.07;;;;;;;;;;5005393;28;20578;-72
2022/11/20 06:41:18;;;;;;;18.40;11.07;;;;;;;;;;5006131;28;20078;-70
2022/11/20 06:43:44;;;;;;;20.23;12.00;;;;;;;;;;5005342;28;20149;-70
2022/11/20 06:46:11;;;;;;;20.83;11.95;;;;;;;;;;5007882;28;20058;-70
2022/11/20 06:48:38;;;;;;;18.77;11.60;;;;;;;;;;5017739;28;20157;-72
2022/11/20 06:51:05;;;;;;;18.53;10.87;;;;;;;;;;5027166;28;20050;-72
2022/11/20 06:53:31;;;;;;;19.67;12.07;;;;;;;;;;5024572;28;20264;-72
2022/11/20 06:55:57;;;;;;;17.38;11.82;;;;;;;;;;5023438;28;20508;-73
2022/11/20 06:58:26;;;;;;;17.63;10.98;;;;;;;;;;5024473;28;20061;-71
2022/11/20 07:00:53;;;;;;;20.98;11.90;;;;;;;;;;5022644;28;20659;-71
2022/11/20 07:03:19;;;;;;;17.27;10.80;;;;;;;;;;5009796;28;20050;-73
2022/11/20 07:05:46;;;;;;;20.42;11.88;;;;;;;;;;5004033;28;20050;-71
2022/11/20 07:08:12;;;;;;;17.13;11.63;;;;;;;;;;5011392;28;20295;-71
2022/11/20 07:10:38;;;;;;;19.33;11.45;;;;;;;;;;5045003;28;20053;-71
2022/11/20 07:13:06;;;;;;;22.67;11.35;;;;;;;;;;5024874;28;20460;-73
2022/11/20 07:15:32;;;;;;;14.82;10.77;;;;;;;;;;5024250;28;20505;-73
2022/11/20 07:17:59;;;;;;;18.42;11.18;;;;;;;;;;5023184;28;20468;-71
2022/11/20 07:20:26;;;;;;;15.32;10.43;;;;;;;;;;5024068;28;20056;-70
2022/11/20 07:22:56;;;;;;;17.98;11.38;;;;;;;;;;5018696;28;20432;-70
2022/11/20 07:25:23;;;;;;;21.55;11.73;;;;;;;;;;5024439;28;20187;-73
2022/11/20 07:27:49;;;;;;;20.25;11.15;;;;;;;;;;5022792;28;20468;-73
2022/11/20 07:30:16;;;;;;;18.27;10.32;;;;;;;;;;5019084;28;20077;-71
2022/11/20 07:32:45;;;;;;;20.13;12.18;;;;;;;;;;5020139;28;20540;-72
2022/11/20 07:35:12;;;;;;;18.33;9.95;;;;;;;;;;5023983;28;20061;-72
2022/11/20 07:37:38;;;;;;;19.83;11.98;;;;;;;;;;5024736;28;20077;-72
2022/11/20 07:40:04;;;;;;;19.10;10.98;;;;;;;;;;5023652;28;20050;-73
2022/11/20 07:42:31;;;;;;;20.50;12.07;;;;;;;;;;5005693;28;20082;-72
2022/11/20 07:44:57;;;;;;;19.42;11.25;;;;;;;;;;5003412;28;20101;-72
2022/11/20 07:47:23;;;;;;;19.35;11.38;;;;;;;;;;5004635;28;20058;-72
2022/11/20 07:49:49;;;;;;;18.67;10.45;;;;;;;;;;5004559;28;20519;-70
2022/11/20 07:52:16;;;;;;;20.67;10.88;;;;;;;;;;5003978;28;20563;-72
2022/11/20 07:54:42;;;;;;;19.08;10.73;;;;;;;;;;5020868;28;20054;-71
2022/11/20 07:57:08;;;;;;;18.02;10.93;;;;;;;;;;5007110;28;20062;-72
2022/11/20 07:59:35;;;;;;;17.52;10.93;;;;;;;;;;5003633;28;20046;-73
2022/11/20 08:02:01;;;;;;;20.20;11.88;;;;;;;;;;5018420;28;20159;-73
2022/11/20 08:04:27;;;;;;;24.35;12.15;;;;;;;;;;5017451;28;20546;-72
2022/11/20 08:06:53;;;;;;;20.10;12.07;;;;;;;;;;5023719;28;20046;-73
2022/11/20 08:09:20;;;;;;;19.60;11.23;;;;;;;;;;5013627;28;20046;-71
2022/11/20 08:14:32;;;;;;;21.17;11.13;;;;;;;;;;5011593;28;20492;-73
2022/11/20 08:16:59;;;;;;;19.02;12.10;;;;;;;;;;5021874;28;20057;-73
2022/11/20 08:19:25;;;;;;;19.63;11.02;;;;;;;;;;5020953;28;20054;-74
2022/11/20 08:21:51;;;;;;;20.90;11.20;;;;;;;;;;5022767;28;20137;-72
2022/11/20 08:24:18;;;;;;;18.23;11.85;;;;;;;;;;5016388;28;20504;-72
2022/11/20 08:26:44;;;;;;;21.13;12.32;;;;;;;;;;5010925;28;20065;-72
2022/11/20 08:29:10;;;;;;;18.70;12.20;;;;;;;;;;5021892;28;20521;-70
2022/11/20 08:31:37;;;;;;;21.67;11.70;;;;;;;;;;5004155;28;20059;-71
2022/11/20 08:34:03;;;;;;;20.80;13.02;;;;;;;;;;5015628;28;20507;-73
2022/11/20 08:36:36;;;;;;;19.27;12.05;;;;;;;;;;5010237;28;20050;-71
2022/11/20 08:39:02;;;;;;;20.63;12.18;;;;;;;;;;5013578;28;20528;-71
2022/11/20 08:41:31;;;;;;;21.45;12.35;;;;;;;;;;5017512;28;20061;-73
2022/11/20 08:44:01;;;;;;;24.00;12.88;;;;;;;;;;5014005;28;20073;-71
2022/11/20 08:46:32;;;;;;;20.80;11.77;;;;;;;;;;5007096;28;20065;-73
2022/11/20 08:48:59;;;;;;;20.27;12.43;;;;;;;;;;5010419;28;20197;-72
2022/11/20 08:51:25;;;;;;;21.48;12.50;;;;;;;;;;5010659;28;20069;-71
2022/11/20 08:53:52;;;;;;;25.17;11.60;;;;;;;;;;5021767;28;20514;-73
2022/11/20 08:56:18;;;;;;;22.33;12.85;;;;;;;;;;5010177;28;20396;-72
2022/11/20 08:58:44;;;;;;;22.15;13.15;;;;;;;;;;5008411;28;20068;-70
2022/11/20 09:01:31;;;;;;;20.95;12.25;;;;;;;;;;5014562;28;20066;-71
2022/11/20 09:03:57;;;;;;;22.25;11.38;;;;;;;;;;5006566;28;20355;-71
2022/11/20 09:06:24;;;;;;;21.30;13.52;;;;;;;;;;5013114;28;20076;-72
2022/11/20 09:08:53;;;;;;;23.30;12.25;;;;;;;;;;5022563;28;20053;-72
2022/11/20 09:11:20;;;;;;;23.65;12.00;;;;;;;;;;5021146;28;20126;-70
2022/11/20 09:13:46;;;;;;;20.70;12.65;;;;;;;;;;5022168;28;20065;-74
2022/11/20 09:16:13;;;;;;;22.95;12.60;;;;;;;;;;5021924;28;20123;-72
2022/11/20 09:18:39;;;;;;;21.70;12.88;;;;;;;;;;5022360;28;20053;-72
2022/11/20 09:21:07;;;;;;;21.30;12.80;;;;;;;;;;5019765;28;20056;-73
2022/11/20 09:23:34;;;;;;;18.42;12.52;;;;;;;;;;5019346;28;20046;-73
2022/11/20 09:26:01;;;;;;;22.73;12.98;;;;;;;;;;5017325;28;20196;-71
2022/11/20 09:28:28;;;;;;;25.42;13.43;;;;;;;;;;5020104;28;20056;-73
2022/11/20 09:30:54;;;;;;;20.70;12.68;;;;;;;;;;5021247;28;20045;-73
2022/11/20 09:33:21;;;;;;;20.92;12.40;;;;;;;;;;5019406;28;20053;-71
2022/11/20 09:35:47;;;;;;;19.25;12.02;;;;;;;;;;5005628;28;20504;-73
2022/11/20 09:38:14;;;;;;;22.08;13.70;;;;;;;;;;5022227;28;20050;-72
2022/11/20 09:40:45;;;;;;;22.02;13.93;;;;;;;;;;5017742;28;20054;-71
2022/11/20 09:43:14;;;;;;;24.98;13.85;;;;;;;;;;5008995;28;20050;-72
2022/11/20 09:45:59;;;;;;;26.85;13.57;;;;;;;;;;5015441;28;20052;-72
2022/11/20 09:48:45;;;;;;;24.63;13.87;;;;;;;;;;5023017;28;20587;-72
2022/11/20 09:51:35;;;;;;;20.83;13.38;;;;;;;;;;5022081;28;20050;-72
2022/11/20 09:54:15;;;;;;;25.40;14.50;;;;;;;;;;5015263;28;20112;-72
2022/11/20 09:56:48;;;;;;;20.05;12.85;;;;;;;;;;5043047;28;20064;-72
2022/11/20 09:59:26;;;;;;;21.38;13.48;;;;;;;;;;5038920;28;20054;-73
2022/11/20 10:01:53;;;;;;;19.80;13.38;;;;;;;;;;5019453;28;20468;-71
2022/11/20 10:04:20;;;;;;;23.48;14.75;;;;;;;;;;5015373;28;20050;-71
2022/11/20 10:06:49;;;;;;;19.52;12.40;;;;;;;;;;5026400;28;20567;-72
2022/11/20 10:09:32;;;;;;;20.13;13.55;;;;;;;;;;5012399;28;20049;-73
2022/11/20 10:12:04;;;;;;;26.23;13.60;;;;;;;;;;5034232;28;20057;-73
2022/11/20 10:14:39;;;;;;;21.35;13.80;;;;;;;;;;5022821;28;20056;-71
2022/11/20 10:17:06;;;;;;;;;;;;;;;;;;5025327;28;20536;-71
2022/11/20 10:19:32;;;;;;;;;;;;;;;;;;5024164;28;46609;-73
2022/11/20 10:21:58;;;;;;;23.13;13.23;;;;;;;;;;5019072;28;43080;-71
2022/11/20 10:24:36;;;;;;;22.85;13.15;;;;;;;;;;5014165;28;20429;-74
2022/11/20 10:27:12;;;;;;;23.60;14.35;;;;;;;;;;5021170;28;20062;-71
2022/11/20 10:29:40;;;;;;;22.30;13.68;;;;;;;;;;5024303;28;20042;-73
2022/11/20 10:32:18;;;;;;;22.77;13.73;;;;;;;;;;5021119;28;20057;-73
2022/11/20 10:34:57;;;;;;;21.85;14.98;;;;;;;;;;5010706;28;20046;-74
2022/11/20 10:37:25;;;;;;;24.35;15.27;;;;;;;;;;5011286;28;20054;-76
2022/11/20 10:40:10;;;;;;;23.25;15.05;;;;;;;;;;5019108;28;20116;-72
2022/11/20 10:42:53;;;;;;;23.60;14.15;;;;;;;;;;5037253;28;20058;-73
2022/11/20 10:45:32;;;;;;;23.20;13.45;;;;;;;;;;5006795;28;20058;-74
2022/11/20 10:48:14;;;;;;;25.13;15.05;;;;;;;;;;5025042;28;20053;-73
2022/11/20 10:50:46;;;;;;;31.27;16.08;;;;;;;;;;5015209;28;20046;-74
2022/11/20 10:53:19;;;;;;;23.27;13.85;;;;;;;;;;5014708;28;20647;-71
2022/11/20 10:55:48;;;;;;;24.75;15.13;;;;;;;;;;5008023;28;20054;-73
2022/11/20 10:58:25;;;;;;;22.40;13.23;;;;;;;;;;5022171;28;20555;-71
2022/11/20 11:00:51;;;;;;;27.20;16.45;;;;;;;;;;5024591;28;20064;-72
2022/11/20 11:03:21;;;;;;;30.23;15.45;;;;;;;;;;5018893;28;20058;-72
2022/11/20 11:05:50;;;;;;;29.75;16.35;;;;;;;;;;5018268;28;20061;-72
2022/11/20 11:08:17;;;;;;;26.25;15.77;;;;;;;;;;5004209;28;20054;-74
2022/11/20 11:11:04;;;;;;;27.67;14.85;;;;;;;;;;5008563;28;20054;-74
2022/11/20 11:13:30;;;;;;;28.40;16.90;;;;;;;;;;5020020;28;20139;-72
2022/11/20 11:15:57;;;;;;;27.17;16.50;;;;;;;;;;5005969;28;20141;-73
2022/11/20 11:18:31;;;;;;;26.23;16.15;;;;;;;;;;5021892;28;20054;-72
2022/11/20 11:20:59;;;;;;;27.30;16.75;;;;;;;;;;5014466;28;20061;-73
2022/11/20 11:23:31;;;;;;;29.48;17.25;;;;;;;;;;5004885;28;20516;-73
2022/11/20 11:25:58;;;;;;;32.58;18.83;;;;;;;;;;5006180;28;20054;-74
2022/11/20 11:28:27;;;;;;;29.45;17.50;;;;;;;;;;5020722;28;20626;-74
2022/11/20 11:30:53;;;;;;;35.85;18.60;;;;;;;;;;5024176;28;20050;-74
2022/11/20 11:33:20;;;;;;;32.85;18.70;;;;;;;;;;5014388;28;20141;-74
2022/11/20 11:35:47;;;;;;;28.67;17.10;;;;;;;;;;5007185;28;20051;-72
2022/11/20 11:38:19;;;;;;;28.13;17.77;;;;;;;;;;5015237;28;20121;-73
2022/11/20 11:40:46;;;;;;;37.17;20.67;;;;;;;;;;5023781;28;20459;-73
2022/11/20 11:46:07;;;;;;;31.27;17.25;;;;;;;;;;5015523;28;20142;-73
2022/11/20 11:48:34;;;;;;;31.83;19.00;;;;;;;;;;5026543;28;20536;-74
2022/11/20 11:51:00;;;;;;;28.95;18.98;;;;;;;;;;5016849;28;20046;-73
2022/11/20 11:53:27;;;;;;;33.58;18.95;;;;;;;;;;5010837;28;20053;-73
2022/11/20 11:55:58;;;;;;;29.63;17.90;;;;;;;;;;5021773;28;20053;-73
2022/11/20 11:58:27;;;;;;;34.08;19.40;;;;;;;;;;5021949;28;20056;-74
2022/11/20 12:00:56;;;;;;;33.35;18.73;;;;;;;;;;5018581;28;20053;-73
2022/11/20 12:03:26;;;;;;;39.78;20.23;;;;;;;;;;5020464;28;20052;-72
2022/11/20 12:06:10;;;;;;;36.97;21.85;;;;;;;;;;5021962;28;20686;-74
2022/11/20 12:08:54;;;;;;;37.53;21.25;;;;;;;;;;5021085;28;20061;-75
2022/11/20 12:11:40;;;;;;;38.83;22.08;;;;;;;;;;5019646;28;20057;-73
2022/11/20 12:14:19;;;;;;;36.38;21.63;;;;;;;;;;5020860;28;20508;-71
2022/11/20 12:16:46;;;;;;;38.38;20.13;;;;;;;;;;5021835;28;20070;-74
2022/11/20 12:19:13;;;;;;;38.45;22.02;;;;;;;;;;5017741;28;20050;-74
2022/11/20 12:21:42;;;;;;;37.92;21.83;;;;;;;;;;5025148;28;20053;-71
2022/11/20 12:24:27;;;;;;;36.92;20.85;;;;;;;;;;5022123;28;20050;-70
2022/11/20 12:27:03;;;;;;;35.77;20.20;;;;;;;;;;5035203;28;20492;-71
2022/11/20 12:29:45;;;;;;;39.78;22.52;;;;;;;;;;5038753;28;20814;-72
2022/11/20 12:32:14;;;;;;;36.75;21.98;;;;;;;;;;5012651;28;20590;-74
2022/11/20 12:34:51;;;;;;;44.45;22.92;;;;;;;;;;5008901;28;20058;-72
2022/11/20 12:37:20;;;;;;;39.28;21.88;;;;;;;;;;5021086;28;20101;-74
2022/11/20 12:39:50;;;;;;;43.55;22.50;;;;;;;;;;5023403;28;20093;-73
2022/11/20 12:45:14;;;;;;;41.50;22.13;;;;;;;;;;5022936;28;20478;-73
2022/11/20 12:47:40;;;;;;;;;;;;;;;;;;5024183;28;20050;-71
2022/11/20 12:50:22;;;;;;;40.67;20.58;;;;;;;;;;5020060;28;44233;-70
2022/11/20 12:53:04;;;;;;;36.33;21.65;;;;;;;;;;5007314;28;20051;-72
2022/11/20 12:55:36;;;;;;;35.70;20.70;;;;;;;;;;5015335;28;20448;-73
2022/11/20 12:58:12;;;;;;;37.70;21.35;;;;;;;;;;5007930;28;20515;-73
2022/11/20 13:00:40;;;;;;;36.58;20.58;;;;;;;;;;5009261;28;20051;-72
2022/11/20 13:03:16;;;;;;;35.80;20.98;;;;;;;;;;5046517;28;20057;-73
2022/11/20 13:05:48;;;;;;;42.75;22.10;;;;;;;;;;5019134;28;20055;-70
2022/11/20 13:08:19;;;;;;;44.13;23.75;;;;;;;;;;5022749;28;20077;-73
2022/11/20 13:10:50;;;;;;;38.75;22.25;;;;;;;;;;5019324;28;20165;-69
2022/11/20 13:13:26;;;;;;;43.25;23.85;;;;;;;;;;5010451;28;20046;-71
2022/11/20 13:16:15;;;;;;;41.90;22.52;;;;;;;;;;5000086;28;20085;-75
2022/11/20 13:18:44;;;;;;;37.75;21.58;;;;;;;;;;5009832;28;20120;-71
2022/11/20 13:21:15;;;;;;;37.35;21.48;;;;;;;;;;4999813;28;20499;-71
2022/11/20 13:23:42;;;;;;;42.10;22.98;;;;;;;;;;4997250;28;20054;-73
2022/11/20 13:26:34;;;;;;;39.50;23.15;;;;;;;;;;5033635;28;20051;-76
2022/11/20 13:29:07;;;;;;;43.42;23.17;;;;;;;;;;5000666;28;20631;-76
2022/11/20 13:31:35;;;;;;;38.75;22.33;;;;;;;;;;4999636;28;20501;-76
2022/11/20 13:34:03;;;;;;;42.67;23.40;;;;;;;;;;5002224;28;20084;-78
2022/11/20 13:36:30;;;;;;;41.15;22.92;;;;;;;;;;5023093;28;20679;-75
2022/11/20 13:38:56;;;;;;;39.42;23.42;;;;;;;;;;5042267;28;20056;-71
2022/11/20 13:41:31;;;;;;;44.35;24.00;;;;;;;;;;5023759;28;20049;-74
2022/11/20 13:44:09;;;;;;;41.43;24.37;;;;;;;;;;5012125;28;20065;-74
2022/11/20 13:46:37;;;;;;;36.65;21.50;;;;;;;;;;5020689;28;20378;-77
2022/11/20 13:49:08;;;;;;;39.92;22.35;;;;;;;;;;5005520;28;20105;-75
2022/11/20 13:51:37;;;;;;;38.10;22.52;;;;;;;;;;5006072;28;20488;-75
2022/11/20 13:54:03;;;;;;;39.63;22.33;;;;;;;;;;5022733;28;20108;-76
2022/11/20 13:56:49;;;;;;;42.00;23.40;;;;;;;;;;5016328;28;20058;-74
2022/11/20 13:59:39;;;;;;;41.35;22.23;;;;;;;;;;5015211;28;20050;-72
2022/11/20 14:02:11;;;;;;;41.17;23.08;;;;;;;;;;5006852;28;20804;-74
2022/11/20 14:04:41;;;;;;;37.33;21.98;;;;;;;;;;5011917;28;20082;-73
2022/11/20 14:07:08;;;;;;;45.63;22.95;;;;;;;;;;5016024;28;20057;-73
2022/11/20 14:09:35;;;;;;;41.53;22.88;;;;;;;;;;5021993;28;20106;-74
2022/11/20 14:12:02;;;;;;;40.15;23.70;;;;;;;;;;5009731;28;20316;-72
2022/11/20 14:14:29;;;;;;;41.53;22.15;;;;;;;;;;5012263;28;20046;-77
2022/11/20 14:17:16;;;;;;;49.47;24.17;;;;;;;;;;5004299;28;20642;-73
2022/11/20 14:19:44;;;;;;;42.00;22.90;;;;;;;;;;5005026;28;20054;-70
2022/11/20 14:22:17;;;;;;;42.58;23.02;;;;;;;;;;5008344;28;20054;-71
2022/11/20 14:24:44;;;;;;;44.83;22.70;;;;;;;;;;5009552;28;20112;-72
2022/11/20 14:27:15;;;;;;;40.50;22.13;;;;;;;;;;5009328;28;20140;-70
2022/11/20 14:29:42;;;;;;;42.75;22.10;;;;;;;;;;5011237;28;20061;-71
2022/11/20 14:32:09;;;;;;;42.00;22.90;;;;;;;;;;5012802;28;20054;-74
2022/11/20 14:34:37;;;;;;;41.45;22.40;;;;;;;;;;5011257;28;20058;-72
2022/11/20 14:37:05;;;;;;;41.90;22.17;;;;;;;;;;5009978;28;20054;-73
2022/11/20 14:39:35;;;;;;;42.75;22.73;;;;;;;;;;5016214;28;20054;-68
2022/11/20 14:42:02;;;;;;;46.08;22.73;;;;;;;;;;5021514;28;20042;-72
2022/11/20 14:44:32;;;;;;;45.22;24.42;;;;;;;;;;5005945;28;20063;-74
2022/11/20 14:47:00;;;;;;;49.17;22.67;;;;;;;;;;5021118;28;20054;-70